ETSI METAR and TAF | Updated Today

ETSI METAR

Ingolstadt Manching Airport

Observation time: 52 min. ago

ETSI 200720Z 21001KT 9999 FEW080 BKN320 21/15 Q1023 BLU+BLU+

Need help? Read our tutorial on how to read METARs or read the parsed version below.

Ingolstadt Manching Airport (ETSI) METAR

  • Weather conditions on Fri, 20 May 2022 07:20:00 +0000 (52 min. ago):
  • Present conditions: Dry
  • Clouds: A few at 2438 meters; broken sky at 9754 meters
  • Visibility: Greater than 10 km
  • Wind: 210 degrees at 1 knots
  • Temperature: 21 celsius
  • Dew point: 15 celsius
  • Pressure: 1023 millibars
  • Remarks: None


Useful to know...

ETSI TAF

Ingolstadt Manching Airport

TAF ETSI 200711Z 2008/2017 25006KT 9999 NSW BKN300
Observation time: 61 min. ago
Need help? Read our tutorial on how to read TAFs or read the parsed version below.

Parsed version of TAF for Ingolstadt Manching Airport (ETSI)

  • From 20 May at 08:00 UTC, to day 20 of the month at 17:00 UTC
  • Clouds: No significant weather are observed; broken sky at 9144 meters
  • Visibility: Greater than 10 km
  • Wind: 250 degrees at 6